Time;durP1;ratioP1;P1;durP2;ratioP2;P2;SDS_P1;SDS_P2;PMS_P1;PMS_P2;Temp;Humidity;BMP_temperature;BMP_pressure;BME280_temperature;BME280_humidity;BME280_pressure;Samples;Min_cycle;Max_cycle;Signal;HPM_P1;HPM_P2
2023/03/16 00:02:20;;;;;;;1.23;0.55;;;5.30;64.60;;;;;;5083952;28;20502;-84
2023/03/16 00:04:46;;;;;;;0.47;0.20;;;5.10;65.60;;;;;;5083643;28;20088;-84
2023/03/16 00:07:13;;;;;;;2.17;0.73;;;4.90;66.40;;;;;;5085782;28;20093;-83
2023/03/16 00:09:40;;;;;;;0.70;0.40;;;5.00;66.10;;;;;;5091844;28;20050;-84
2023/03/16 00:12:17;;;;;;;0.13;0.10;;;5.00;65.70;;;;;;5091375;28;20091;-84
2023/03/16 00:14:45;;;;;;;0.55;0.20;;;4.90;66.30;;;;;;5099659;27;20027;-83
2023/03/16 00:17:19;;;;;;;0.60;0.20;;;5.20;65.00;;;;;;5098252;28;20028;-83
2023/03/16 00:19:53;;;;;;;0.70;0.30;;;5.20;66.00;;;;;;5092493;28;20031;-84
2023/03/16 00:22:20;;;;;;;;;;;5.00;66.30;;;;;;5090094;28;20031;-84
2023/03/16 00:24:46;;;;;;;0.50;0.10;;;4.90;66.30;;;;;;5089937;28;19908;-84
2023/03/16 00:27:13;;;;;;;0.93;0.20;;;4.80;66.60;;;;;;5092973;28;20385;-83
2023/03/16 00:29:54;;;;;;;0.90;0.50;;;4.70;66.80;;;;;;5095664;28;20050;-84
2023/03/16 00:32:25;;;;;;;1.08;0.30;;;4.80;67.10;;;;;;5088641;28;20031;-84
2023/03/16 00:34:51;;;;;;;1.05;0.20;;;4.90;66.50;;;;;;5090345;28;20091;-84
2023/03/16 00:37:18;;;;;;;0.57;0.40;;;4.90;66.40;;;;;;5097040;28;20095;-83
2023/03/16 00:39:45;;;;;;;0.93;0.30;;;4.80;66.50;;;;;;5100125;28;20043;-83
2023/03/16 00:42:13;;;;;;;0.70;0.30;;;5.00;66.00;;;;;;5089204;28;20130;-84
2023/03/16 00:44:40;;;;;;;0.50;0.10;;;4.70;66.90;;;;;;5097275;28;20027;-83
2023/03/16 00:47:07;;;;;;;0.45;0.20;;;4.60;67.30;;;;;;5087907;28;20069;-84
2023/03/16 00:49:34;;;;;;;1.02;0.28;;;4.70;66.60;;;;;;5095571;28;20039;-84
2023/03/16 00:52:01;;;;;;;0.17;0.17;;;4.70;67.00;;;;;;5096173;28;20053;-83
2023/03/16 00:54:28;;;;;;;1.00;0.38;;;4.60;67.30;;;;;;5101825;28;20019;-83
2023/03/16 00:56:54;;;;;;;1.02;0.57;;;4.60;67.00;;;;;;5100701;28;20031;-84
2023/03/16 00:59:20;;;;;;;1.52;0.40;;;4.60;67.40;;;;;;5102730;28;20396;-83
2023/03/16 01:01:46;;;;;;;0.57;0.30;;;4.70;67.10;;;;;;5087703;28;20032;-84
2023/03/16 01:04:12;;;;;;;0.55;0.20;;;4.40;68.00;;;;;;5088478;28;20482;-84
2023/03/16 01:06:39;;;;;;;0.40;0.20;;;4.40;68.90;;;;;;5088822;28;20068;-83
2023/03/16 01:09:05;;;;;;;1.13;0.47;;;4.30;69.10;;;;;;5097231;28;20032;-83
2023/03/16 01:11:34;;;;;;;2.28;0.47;;;4.40;68.20;;;;;;5088431;28;20032;-84
2023/03/16 01:13:59;;;;;;;1.85;0.50;;;4.40;68.30;;;;;;5090761;28;20031;-84
2023/03/16 01:16:25;;;;;;;1.77;0.57;;;4.50;67.60;;;;;;5101526;28;20051;-83
2023/03/16 01:18:51;;;;;;;0.63;0.22;;;4.60;67.40;;;;;;5095568;28;20058;-83
2023/03/16 01:21:17;;;;;;;0.60;0.40;;;4.60;67.30;;;;;;5090938;28;20043;-83
2023/03/16 01:23:43;;;;;;;1.15;0.40;;;4.60;68.00;;;;;;5091128;28;20020;-83
2023/03/16 01:26:09;;;;;;;1.67;0.20;;;4.60;67.70;;;;;;5096734;28;20114;-83
2023/03/16 01:28:36;;;;;;;0.10;0.10;;;4.50;67.50;;;;;;5101166;28;20046;-83
2023/03/16 01:31:05;;;;;;;0.13;0.10;;;4.30;68.50;;;;;;5091792;28;20062;-83
2023/03/16 01:33:32;;;;;;;0.50;0.20;;;4.20;68.60;;;;;;5095242;28;20432;-83
2023/03/16 01:36:12;;;;;;;2.60;0.55;;;4.40;68.10;;;;;;5096001;27;20040;-84
2023/03/16 01:38:39;;;;;;;2.42;0.52;;;4.30;67.90;;;;;;5095070;28;20101;-84
2023/03/16 01:41:05;;;;;;;2.17;0.30;;;4.30;68.30;;;;;;5094783;28;20031;-83
2023/03/16 01:43:33;;;;;;;2.67;0.60;;;4.10;68.90;;;;;;5093179;28;20024;-83
2023/03/16 01:46:04;;;;;;;0.95;0.30;;;3.90;70.10;;;;;;5087699;28;20036;-83
2023/03/16 01:48:53;;;;;;;0.82;0.25;;;4.00;69.70;;;;;;5089691;28;20032;-83
2023/03/16 01:51:38;;;;;;;2.33;0.38;;;4.10;68.90;;;;;;5101435;28;20406;-83
2023/03/16 01:54:13;;;;;;;0.80;0.32;;;4.20;68.70;;;;;;5093201;28;20042;-84
2023/03/16 01:57:05;;;;;;;0.98;0.57;;;4.20;69.00;;;;;;5103052;28;20019;-83
2023/03/16 01:59:37;;;;;;;0.20;0.10;;;4.20;69.10;;;;;;5092771;28;20115;-83
2023/03/16 02:02:02;;;;;;;1.10;0.38;;;4.00;70.00;;;;;;5106872;28;20034;-84
2023/03/16 02:05:01;;;;;;;0.40;0.20;;;3.80;70.00;;;;;;5105157;27;20044;-83
2023/03/16 02:07:29;;;;;;;0.82;0.30;;;3.80;70.10;;;;;;5096643;28;20127;-83
2023/03/16 02:09:58;;;;;;;0.60;0.20;;;4.10;69.50;;;;;;5104757;28;20035;-84
2023/03/16 02:12:24;;;;;;;2.17;0.43;;;3.80;70.20;;;;;;5104807;27;20028;-84
2023/03/16 02:14:50;;;;;;;1.40;0.63;;;3.70;71.30;;;;;;5092216;28;20084;-84
2023/03/16 02:17:20;;;;;;;1.17;0.55;;;3.90;70.40;;;;;;5093850;28;20043;-83
2023/03/16 02:20:28;;;;;;;1.08;0.38;;;4.00;69.80;;;;;;5098288;28;20073;-83
2023/03/16 02:22:54;;;;;;;1.15;0.20;;;4.20;70.50;;;;;;5092240;28;20085;-83
2023/03/16 02:25:25;;;;;;;1.08;0.45;;;4.00;70.20;;;;;;5095169;28;20494;-82
2023/03/16 02:27:59;;;;;;;0.88;0.30;;;4.00;70.10;;;;;;5091073;28;20173;-84
2023/03/16 02:30:26;;;;;;;;;;;4.00;69.90;;;;;;5098245;28;20047;-83
2023/03/16 02:32:53;;;;;;;1.50;0.52;;;3.80;70.10;;;;;;5094080;28;19920;-84
2023/03/16 02:35:19;;;;;;;0.55;0.20;;;3.90;70.00;;;;;;5103232;28;20081;-83
2023/03/16 02:37:45;;;;;;;0.95;0.40;;;4.00;70.20;;;;;;5096113;28;20397;-84
2023/03/16 02:40:25;;;;;;;1.17;0.30;;;3.90;70.40;;;;;;5100511;27;20646;-83
2023/03/16 02:43:03;;;;;;;2.72;0.60;;;3.70;70.90;;;;;;5092381;28;20539;-83
2023/03/16 02:45:56;;;;;;;1.38;0.50;;;3.80;70.20;;;;;;5104017;27;20401;-84
2023/03/16 02:49:05;;;;;;;1.67;0.55;;;3.90;70.50;;;;;;5101974;28;20633;-83
2023/03/16 02:51:31;;;;;;;0.95;0.30;;;4.10;69.40;;;;;;5087919;28;20040;-84
2023/03/16 02:53:57;;;;;;;0.52;0.30;;;4.00;70.90;;;;;;5090921;28;20039;-84
2023/03/16 02:56:23;;;;;;;1.65;0.35;;;3.80;70.90;;;;;;5089407;28;20046;-83
2023/03/16 02:58:49;;;;;;;1.27;0.30;;;3.80;70.20;;;;;;5098045;27;20024;-83
2023/03/16 03:01:15;;;;;;;1.63;0.57;;;3.60;72.00;;;;;;5096427;28;20024;-84
2023/03/16 03:03:41;;;;;;;1.15;0.50;;;3.30;72.30;;;;;;5097273;28;20027;-83
2023/03/16 03:06:06;;;;;;;0.82;0.43;;;3.40;71.80;;;;;;5091472;28;20385;-83
2023/03/16 03:08:32;;;;;;;1.73;0.40;;;3.70;70.90;;;;;;5096536;28;20024;-84
2023/03/16 03:10:58;;;;;;;0.88;0.35;;;3.90;70.10;;;;;;5091663;28;20414;-84
2023/03/16 03:13:24;;;;;;;1.45;0.57;;;3.60;71.80;;;;;;5099971;28;20039;-84
2023/03/16 03:15:49;;;;;;;2.33;0.45;;;3.80;70.60;;;;;;5099732;27;20032;-84
2023/03/16 03:18:15;;;;;;;0.52;0.30;;;3.60;71.50;;;;;;5091033;27;20024;-84
2023/03/16 03:20:41;;;;;;;2.67;0.98;;;3.50;72.10;;;;;;5094315;28;20099;-82
2023/03/16 03:23:06;;;;;;;0.70;0.20;;;3.40;72.30;;;;;;5100774;28;20028;-84
2023/03/16 03:25:33;;;;;;;3.05;0.60;;;3.50;72.30;;;;;;5093973;28;20028;-84
2023/03/16 03:28:01;;;;;;;0.88;0.30;;;3.70;71.20;;;;;;5087299;28;20482;-81
2023/03/16 03:30:27;;;;;;;0.88;0.30;;;3.60;71.20;;;;;;5097695;28;20122;-84
2023/03/16 03:32:53;;;;;;;0.95;0.25;;;3.80;71.20;;;;;;5089871;28;20027;-84
2023/03/16 03:35:18;;;;;;;0.88;0.30;;;3.40;72.20;;;;;;5088451;28;20111;-84
2023/03/16 03:37:44;;;;;;;1.65;0.57;;;3.20;73.60;;;;;;5088464;28;20119;-84
2023/03/16 03:40:12;;;;;;;0.63;0.30;;;3.60;72.60;;;;;;5096811;27;20143;-84
2023/03/16 03:42:39;;;;;;;0.43;0.20;;;3.40;72.50;;;;;;5091059;28;20032;-84
2023/03/16 03:45:06;;;;;;;0.50;0.22;;;3.50;72.30;;;;;;5095428;28;20032;-84
2023/03/16 03:47:33;;;;;;;1.45;0.50;;;3.20;72.80;;;;;;5099925;28;20031;-84
2023/03/16 03:49:58;;;;;;;1.67;0.55;;;3.40;72.00;;;;;;5093268;28;20039;-83
2023/03/16 03:52:24;;;;;;;1.65;0.50;;;3.40;72.80;;;;;;5095655;28;20512;-84
2023/03/16 03:54:50;;;;;;;1.13;0.52;;;2.90;74.80;;;;;;5094601;28;20032;-83
2023/03/16 03:57:16;;;;;;;1.05;0.45;;;2.90;74.20;;;;;;5096728;28;20666;-83
2023/03/16 03:59:42;;;;;;;1.27;0.50;;;3.00;73.60;;;;;;5101581;28;20027;-83
2023/03/16 04:02:12;;;;;;;0.55;0.32;;;2.90;74.70;;;;;;5091994;28;20035;-82
2023/03/16 04:04:39;;;;;;;1.52;0.80;;;2.50;76.10;;;;;;5090671;28;20838;-84
2023/03/16 04:07:05;;;;;;;1.05;0.40;;;2.60;75.60;;;;;;5086002;28;20035;-83
2023/03/16 04:09:34;;;;;;;0.13;0.10;;;2.60;75.60;;;;;;5086525;28;20055;-85
2023/03/16 04:12:01;;;;;;;0.88;0.50;;;2.70;74.90;;;;;;5086048;28;20075;-84
2023/03/16 04:14:28;;;;;;;1.00;0.30;;;2.80;74.80;;;;;;5084803;28;20405;-84
2023/03/16 04:16:53;;;;;;;1.20;0.30;;;2.80;74.90;;;;;;5084054;28;20113;-83
2023/03/16 04:19:21;;;;;;;1.80;1.10;;;2.90;74.40;;;;;;5089378;28;20435;-83
2023/03/16 04:21:47;;;;;;;2.25;0.60;;;2.70;75.00;;;;;;5094203;28;20028;-84
2023/03/16 04:24:13;;;;;;;0.77;0.35;;;2.60;75.10;;;;;;5094650;28;20039;-83
2023/03/16 04:26:40;;;;;;;1.52;1.02;;;2.60;75.60;;;;;;5087449;28;20023;-84
2023/03/16 04:29:06;;;;;;;0.98;0.32;;;2.60;75.30;;;;;;5084098;28;20032;-84
2023/03/16 04:31:32;;;;;;;1.15;0.70;;;2.50;75.90;;;;;;5083901;28;20096;-84
2023/03/16 04:33:58;;;;;;;1.20;0.40;;;2.40;76.90;;;;;;5091761;28;20023;-84
2023/03/16 04:36:23;;;;;;;1.08;0.47;;;2.40;77.00;;;;;;5086370;28;20024;-84
2023/03/16 04:38:50;;;;;;;5.05;0.93;;;2.50;76.80;;;;;;5084821;28;20051;-84
2023/03/16 04:41:16;;;;;;;0.95;0.38;;;2.40;77.10;;;;;;5085941;28;20036;-83
2023/03/16 04:43:42;;;;;;;0.70;0.32;;;2.30;76.80;;;;;;5096982;28;20043;-84
2023/03/16 04:46:08;;;;;;;0.73;0.30;;;2.20;77.80;;;;;;5087460;28;20025;-84
2023/03/16 04:48:35;;;;;;;1.05;0.40;;;2.50;76.60;;;;;;5087263;28;20027;-83
2023/03/16 04:51:02;;;;;;;1.33;0.45;;;2.30;77.80;;;;;;5089390;28;20024;-84
2023/03/16 04:53:29;;;;;;;1.08;0.32;;;2.40;76.90;;;;;;5094040;28;20027;-82
2023/03/16 04:55:54;;;;;;;2.10;0.68;;;2.70;76.00;;;;;;5096619;28;20085;-83
2023/03/16 04:58:21;;;;;;;1.80;0.63;;;2.90;75.40;;;;;;5085509;28;20032;-84
2023/03/16 05:00:47;;;;;;;1.75;0.57;;;2.50;76.30;;;;;;5088090;28;20024;-84
2023/03/16 05:03:13;;;;;;;1.27;0.45;;;2.30;77.30;;;;;;5081146;28;20034;-83
2023/03/16 05:05:41;;;;;;;0.40;0.30;;;2.30;77.50;;;;;;5091861;28;20020;-83
2023/03/16 05:08:07;;;;;;;0.38;0.30;;;2.20;77.50;;;;;;5096298;28;20031;-84
2023/03/16 05:10:33;;;;;;;4.05;0.55;;;2.20;78.00;;;;;;5094189;28;20035;-84
2023/03/16 05:12:59;;;;;;;1.95;0.73;;;2.20;77.40;;;;;;5091398;28;20039;-83
2023/03/16 05:15:25;;;;;;;1.52;0.60;;;2.20;77.90;;;;;;5093653;28;20023;-83
2023/03/16 05:17:51;;;;;;;2.22;0.50;;;2.10;78.20;;;;;;5091570;28;20031;-83
2023/03/16 05:20:17;;;;;;;2.17;0.80;;;2.20;77.50;;;;;;5082282;28;20546;-83
2023/03/16 05:22:45;;;;;;;1.30;0.55;;;2.40;77.00;;;;;;5083486;28;20054;-83
2023/03/16 05:25:14;;;;;;;1.77;0.70;;;2.30;77.90;;;;;;5097146;28;20028;-84
2023/03/16 05:27:50;;;;;;;1.52;0.50;;;2.10;78.30;;;;;;5091263;28;20028;-84
2023/03/16 05:30:17;;;;;;;0.88;0.30;;;2.10;78.00;;;;;;5088574;28;20055;-84
2023/03/16 05:32:44;;;;;;;1.75;0.50;;;2.10;78.70;;;;;;5094992;27;20705;-84
2023/03/16 05:35:12;;;;;;;1.23;0.52;;;2.20;78.10;;;;;;5092378;28;20024;-84
2023/03/16 05:37:39;;;;;;;1.92;0.70;;;1.90;80.10;;;;;;5086363;28;20061;-84
2023/03/16 05:40:27;;;;;;;0.57;0.25;;;2.00;79.70;;;;;;5096758;27;20047;-85
2023/03/16 05:42:56;;;;;;;4.68;0.50;;;2.10;79.20;;;;;;5096562;28;20110;-82
2023/03/16 05:45:22;;;;;;;0.55;0.28;;;2.10;78.80;;;;;;5096039;28;20039;-82
2023/03/16 05:47:48;;;;;;;1.55;0.50;;;2.00;79.50;;;;;;5097766;27;20027;-84
2023/03/16 05:50:15;;;;;;;1.67;0.50;;;2.30;78.30;;;;;;5083832;28;20039;-84
2023/03/16 05:52:43;;;;;;;1.08;0.50;;;2.20;78.70;;;;;;5099821;28;20035;-84
2023/03/16 05:55:09;;;;;;;1.40;0.47;;;2.30;78.70;;;;;;5099469;28;20032;-84
2023/03/16 05:57:36;;;;;;;2.10;0.70;;;2.40;78.50;;;;;;5092220;28;20028;-84
2023/03/16 06:00:11;;;;;;;1.25;0.40;;;2.50;77.90;;;;;;5096039;27;20078;-84
2023/03/16 06:02:37;;;;;;;2.28;0.65;;;2.50;78.10;;;;;;5096994;28;20035;-84
2023/03/16 06:05:03;;;;;;;2.17;0.80;;;2.60;77.10;;;;;;5101535;27;20104;-85
2023/03/16 06:07:29;;;;;;;1.55;0.52;;;2.90;76.30;;;;;;5085425;28;20088;-84
2023/03/16 06:09:54;;;;;;;2.22;0.70;;;2.80;76.50;;;;;;5085122;28;20036;-84
2023/03/16 06:12:20;;;;;;;0.93;0.52;;;2.90;76.70;;;;;;5084951;28;20389;-84
2023/03/16 06:14:46;;;;;;;1.33;0.50;;;3.00;77.20;;;;;;5085710;28;20497;-84
2023/03/16 06:17:11;;;;;;;2.05;0.52;;;3.00;77.30;;;;;;5092246;28;20028;-84
2023/03/16 06:19:37;;;;;;;2.20;0.55;;;3.00;77.70;;;;;;5089890;27;20058;-84
2023/03/16 06:22:03;;;;;;;2.13;0.40;;;2.70;77.60;;;;;;5088032;27;20028;-84
2023/03/16 06:24:28;;;;;;;1.10;0.40;;;2.70;77.70;;;;;;5086714;28;20035;-84
2023/03/16 06:26:54;;;;;;;1.63;0.63;;;2.70;78.40;;;;;;5088697;28;20024;-88
2023/03/16 06:29:20;;;;;;;2.70;0.57;;;2.70;78.50;;;;;;5096630;28;20044;-83
2023/03/16 06:31:45;;;;;;;1.15;0.57;;;2.90;78.20;;;;;;5086131;28;20027;-89
2023/03/16 06:34:11;;;;;;;0.75;0.40;;;2.80;78.70;;;;;;5093406;28;20158;-81
2023/03/16 06:36:38;;;;;;;0.73;0.17;;;2.70;78.70;;;;;;5086394;28;20359;-87
2023/03/16 06:39:05;;;;;;;0.93;0.28;;;2.80;79.40;;;;;;5099719;28;20082;-84
2023/03/16 06:41:30;;;;;;;1.42;0.45;;;2.80;79.00;;;;;;5094029;28;20024;-85
2023/03/16 06:43:56;;;;;;;2.75;1.00;;;2.80;77.90;;;;;;5087526;28;20084;-85
2023/03/16 06:46:22;;;;;;;1.45;0.50;;;2.90;78.00;;;;;;5087376;28;20581;-82
2023/03/16 06:48:48;;;;;;;1.08;0.55;;;2.70;79.50;;;;;;5089088;28;20161;-84
2023/03/16 06:51:13;;;;;;;2.10;0.75;;;2.80;79.00;;;;;;5085507;28;20046;-86
2023/03/16 06:53:40;;;;;;;1.63;0.80;;;2.80;79.10;;;;;;5085669;28;20035;-85
2023/03/16 06:56:06;;;;;;;0.80;0.45;;;2.90;78.80;;;;;;5095879;28;20032;-81
2023/03/16 06:58:31;;;;;;;2.38;0.60;;;3.00;78.90;;;;;;5091460;28;20113;-84
2023/03/16 07:01:01;;;;;;;2.50;0.90;;;3.00;78.30;;;;;;5094453;28;20626;-83
2023/03/16 07:03:26;;;;;;;0.38;0.22;;;3.20;78.50;;;;;;5091736;28;20028;-85
2023/03/16 07:05:52;;;;;;;1.63;0.60;;;3.20;79.00;;;;;;5095008;28;20121;-83
2023/03/16 07:08:18;;;;;;;1.02;0.50;;;3.30;79.30;;;;;;5088173;28;20823;-83
2023/03/16 07:10:44;;;;;;;1.38;0.57;;;3.30;79.20;;;;;;5093890;28;20039;-86
2023/03/16 07:13:09;;;;;;;0.93;0.40;;;3.40;78.70;;;;;;5093217;28;20095;-83
2023/03/16 07:15:35;;;;;;;1.42;0.75;;;3.40;78.40;;;;;;5096320;28;20020;-84
2023/03/16 07:18:01;;;;;;;1.40;0.60;;;3.50;78.50;;;;;;5087106;28;20024;-82
2023/03/16 07:20:29;;;;;;;0.85;0.40;;;3.50;78.50;;;;;;5095503;28;20027;-85
2023/03/16 07:22:55;;;;;;;1.27;0.52;;;3.60;79.80;;;;;;5088539;28;20028;-81
2023/03/16 07:25:21;;;;;;;2.05;0.60;;;3.60;80.60;;;;;;5087638;28;20032;-82
2023/03/16 07:27:47;;;;;;;1.95;0.68;;;3.60;81.10;;;;;;5088283;27;20028;-85
2023/03/16 07:30:13;;;;;;;1.80;0.65;;;3.70;78.30;;;;;;5086585;28;20090;-87
2023/03/16 07:32:40;;;;;;;1.52;0.57;;;3.80;77.50;;;;;;5085754;28;20651;-79
2023/03/16 07:35:07;;;;;;;1.13;0.50;;;3.90;76.50;;;;;;5090744;28;20085;-79
2023/03/16 07:37:35;;;;;;;2.17;0.60;;;4.00;76.70;;;;;;5084950;28;20428;-79
2023/03/16 07:40:02;;;;;;;1.10;0.40;;;3.90;76.50;;;;;;5088022;28;20126;-78
2023/03/16 07:42:28;;;;;;;1.50;0.70;;;4.00;77.30;;;;;;5084128;28;20032;-83
2023/03/16 07:44:54;;;;;;;1.48;0.60;;;4.00;77.10;;;;;;5085200;28;20031;-79
2023/03/16 07:47:19;;;;;;;1.50;0.70;;;4.10;77.90;;;;;;5084869;28;20032;-79
2023/03/16 07:49:45;;;;;;;1.48;0.55;;;4.10;77.50;;;;;;5086779;28;20028;-78
2023/03/16 07:52:14;;;;;;;2.72;0.75;;;4.10;77.30;;;;;;5084357;28;20440;-82
2023/03/16 07:54:40;;;;;;;1.52;0.50;;;4.20;76.60;;;;;;5085249;28;20792;-79
2023/03/16 07:57:06;;;;;;;1.10;0.75;;;4.20;75.90;;;;;;5084693;28;20024;-79
2023/03/16 07:59:32;;;;;;;1.75;0.52;;;4.20;76.40;;;;;;5087357;28;20024;-78
2023/03/16 08:01:58;;;;;;;1.77;0.60;;;4.30;75.90;;;;;;5085173;28;20040;-79
2023/03/16 08:04:23;;;;;;;2.25;0.77;;;4.30;76.50;;;;;;5094099;28;20028;-79
2023/03/16 08:06:51;;;;;;;1.88;0.80;;;4.40;76.60;;;;;;5084410;28;20631;-78
2023/03/16 08:09:17;;;;;;;1.88;0.82;;;4.40;77.30;;;;;;5084682;28;20043;-78
2023/03/16 08:11:43;;;;;;;1.88;0.82;;;4.50;78.00;;;;;;5082704;28;20024;-79
2023/03/16 08:14:09;;;;;;;1.77;0.82;;;4.50;78.10;;;;;;5082141;27;20040;-79
2023/03/16 08:16:35;;;;;;;5.20;0.70;;;4.60;76.90;;;;;;5084480;28;20080;-79
2023/03/16 08:19:01;;;;;;;1.58;0.60;;;4.70;78.20;;;;;;5082137;28;20024;-79
2023/03/16 08:21:27;;;;;;;1.90;0.60;;;4.70;78.50;;;;;;5090079;28;20034;-79
2023/03/16 08:23:52;;;;;;;0.85;0.38;;;4.70;75.60;;;;;;5087765;28;20047;-79
2023/03/16 08:26:20;;;;;;;1.90;0.68;;;4.80;75.60;;;;;;5086632;28;20042;-78
2023/03/16 08:28:47;;;;;;;2.92;0.98;;;4.90;76.70;;;;;;5083159;28;20471;-79
2023/03/16 08:31:14;;;;;;;2.42;1.00;;;5.00;76.50;;;;;;5089105;28;20474;-79
2023/03/16 08:33:41;;;;;;;1.65;0.85;;;5.10;76.60;;;;;;5083850;28;20165;-79
2023/03/16 08:36:08;;;;;;;2.88;1.00;;;5.20;76.80;;;;;;5092332;28;20109;-79
2023/03/16 08:38:34;;;;;;;2.85;1.00;;;5.30;76.30;;;;;;5082176;28;20052;-79
2023/03/16 08:41:00;;;;;;;1.92;0.95;;;5.40;76.90;;;;;;5083334;28;20039;-80
2023/03/16 08:43:26;;;;;;;4.15;1.20;;;5.50;77.10;;;;;;5081208;28;20035;-80
2023/03/16 08:45:52;;;;;;;1.85;0.60;;;5.60;77.20;;;;;;5084082;28;20138;-79
2023/03/16 08:48:19;;;;;;;2.45;1.02;;;5.50;76.00;;;;;;5081402;28;20142;-79
2023/03/16 08:50:45;;;;;;;1.23;0.57;;;5.50;74.80;;;;;;5081631;28;20032;-79
2023/03/16 08:53:12;;;;;;;1.63;0.43;;;5.40;74.90;;;;;;5089502;28;20633;-79
2023/03/16 08:55:40;;;;;;;2.00;0.75;;;5.60;74.30;;;;;;5085966;28;20073;-80
2023/03/16 08:58:07;;;;;;;1.75;0.95;;;5.50;73.50;;;;;;5088080;28;20080;-79
2023/03/16 09:00:34;;;;;;;3.08;1.40;;;5.70;73.40;;;;;;5089479;28;20028;-79
2023/03/16 09:02:59;;;;;;;1.98;1.02;;;5.80;73.00;;;;;;5086216;28;20036;-82
2023/03/16 09:05:25;;;;;;;1.85;0.40;;;6.00;73.70;;;;;;5094380;28;20404;-78
2023/03/16 09:07:52;;;;;;;1.45;0.57;;;6.10;73.70;;;;;;5087483;28;20503;-78
2023/03/16 09:10:21;;;;;;;1.55;0.60;;;6.20;74.40;;;;;;5084323;28;20040;-78
2023/03/16 09:12:48;;;;;;;1.40;0.55;;;6.30;74.30;;;;;;5094981;28;20035;-79
2023/03/16 09:15:14;;;;;;;3.65;1.08;;;6.30;72.90;;;;;;5085270;28;20493;-79
2023/03/16 09:17:40;;;;;;;2.30;0.82;;;6.30;73.00;;;;;;5085756;28;20059;-79
2023/03/16 09:20:08;;;;;;;2.10;0.68;;;6.30;73.60;;;;;;5089846;28;20028;-79
2023/03/16 09:22:35;;;;;;;1.80;0.55;;;6.40;73.50;;;;;;5085195;28;20103;-78
2023/03/16 09:25:01;;;;;;;1.02;0.60;;;6.50;73.50;;;;;;5085371;28;20038;-78
2023/03/16 09:27:26;;;;;;;2.38;1.00;;;6.50;74.10;;;;;;5090350;28;20434;-78
2023/03/16 09:29:55;;;;;;;2.90;1.00;;;6.60;72.80;;;;;;5094999;28;20039;-79
2023/03/16 09:32:21;;;;;;;3.28;1.02;;;6.60;72.60;;;;;;5090302;28;20046;-79
2023/03/16 09:34:47;;;;;;;3.92;2.15;;;6.70;72.60;;;;;;5086295;28;20516;-79
2023/03/16 09:37:13;;;;;;;4.03;1.20;;;6.90;73.70;;;;;;5090448;28;20023;-79
2023/03/16 09:39:39;;;;;;;2.58;1.20;;;7.10;71.50;;;;;;5089892;28;20620;-79
2023/03/16 09:42:36;;;;;;;3.15;0.70;;;7.60;73.30;;;;;;5097794;28;20038;-79
2023/03/16 09:45:44;;;;;;;1.75;0.68;;;8.00;72.30;;;;;;5090910;28;20123;-78
2023/03/16 09:48:10;;;;;;;3.60;0.70;;;8.10;71.00;;;;;;5094326;28;20031;-77
2023/03/16 09:50:41;;;;;;;3.47;1.25;;;8.00;70.10;;;;;;5094440;28;20035;-78
2023/03/16 09:53:21;;;;;;;2.50;1.00;;;8.30;71.50;;;;;;5088338;28;20039;-79
2023/03/16 09:55:52;;;;;;;2.22;0.95;;;8.20;71.60;;;;;;5086095;28;20032;-79
2023/03/16 09:58:21;;;;;;;3.05;0.80;;;8.30;71.70;;;;;;5090629;28;20036;-79
2023/03/16 10:01:30;;;;;;;1.98;0.75;;;8.30;71.00;;;;;;5082294;28;20035;-81
2023/03/16 10:04:08;;;;;;;1.92;0.63;;;8.40;70.20;;;;;;5083801;28;20499;-79
2023/03/16 10:06:43;;;;;;;2.05;0.45;;;8.20;70.70;;;;;;5085375;28;20085;-82
2023/03/16 10:09:40;;;;;;;2.33;0.68;;;8.10;69.30;;;;;;5085621;28;20036;-80
2023/03/16 10:12:07;;;;;;;1.52;0.68;;;8.20;69.30;;;;;;5084998;28;20036;-79
2023/03/16 10:14:45;;;;;;;5.20;0.85;;;8.50;70.10;;;;;;5084575;28;20042;-79
2023/03/16 10:17:18;;;;;;;2.13;0.47;;;8.80;70.60;;;;;;5083872;28;20036;-78
2023/03/16 10:20:01;;;;;;;6.38;0.68;;;8.50;68.70;;;;;;5084427;28;20031;-81
2023/03/16 10:22:32;;;;;;;0.90;0.47;;;8.50;69.10;;;;;;5084711;28;20032;-79
2023/03/16 10:25:20;;;;;;;0.80;0.45;;;8.80;70.10;;;;;;5084810;28;20028;-77
2023/03/16 10:27:47;;;;;;;1.90;0.80;;;8.90;69.30;;;;;;5085616;28;20036;-81
2023/03/16 10:30:21;;;;;;;1.13;0.47;;;8.80;68.80;;;;;;5091762;28;20042;-78
2023/03/16 10:32:48;;;;;;;2.22;1.00;;;9.20;69.30;;;;;;5090265;28;20051;-78
2023/03/16 10:35:24;;;;;;;2.65;0.47;;;9.50;69.80;;;;;;5092652;28;20378;-78
2023/03/16 10:37:50;;;;;;;1.70;0.60;;;9.50;69.20;;;;;;5092436;28;20085;-79
2023/03/16 10:40:19;;;;;;;3.00;0.60;;;9.40;68.70;;;;;;5095376;28;20062;-75
2023/03/16 10:42:45;;;;;;;1.45;0.45;;;9.60;69.40;;;;;;5092109;28;20028;-78
2023/03/16 10:45:31;;;;;;;0.82;0.30;;;9.70;70.10;;;;;;5092722;28;20110;-78
2023/03/16 10:48:27;;;;;;;3.65;0.70;;;9.60;67.90;;;;;;5091153;28;20032;-78
2023/03/16 10:50:57;;;;;;;2.75;0.50;;;9.90;68.00;;;;;;5081972;28;20132;-79
2023/03/16 10:53:33;;;;;;;1.60;0.50;;;10.10;68.10;;;;;;5089851;28;20099;-78
2023/03/16 10:56:07;;;;;;;4.78;0.50;;;10.10;69.40;;;;;;5086631;28;20051;-78
2023/03/16 10:58:37;;;;;;;3.95;0.60;;;10.30;67.80;;;;;;5092975;28;20447;-78
2023/03/16 11:01:16;;;;;;;0.85;0.50;;;10.20;68.50;;;;;;5085704;28;20032;-79
2023/03/16 11:03:49;;;;;;;2.80;0.65;;;10.20;67.60;;;;;;5090790;28;20431;-80
2023/03/16 11:06:30;;;;;;;0.95;0.50;;;10.20;68.60;;;;;;5083731;28;20382;-79
2023/03/16 11:09:23;;;;;;;2.83;1.05;;;10.20;67.50;;;;;;5095871;28;20528;-77
2023/03/16 11:11:50;;;;;;;1.27;0.55;;;10.70;71.80;;;;;;5087055;28;20079;-78
2023/03/16 11:14:21;;;;;;;1.10;0.40;;;10.60;68.80;;;;;;5094479;28;20115;-79
2023/03/16 11:17:13;;;;;;;2.63;0.60;;;10.50;68.00;;;;;;5095282;28;20051;-78
2023/03/16 11:19:53;;;;;;;1.48;0.60;;;10.50;68.50;;;;;;5092341;28;20106;-80
2023/03/16 11:22:24;;;;;;;2.53;0.82;;;10.70;69.90;;;;;;5093438;28;20773;-79
2023/03/16 11:25:03;;;;;;;2.88;0.80;;;11.00;70.20;;;;;;5085742;28;20123;-79
2023/03/16 11:27:48;;;;;;;1.38;0.70;;;11.00;69.10;;;;;;5087260;28;20028;-80
2023/03/16 11:30:23;;;;;;;2.90;0.77;;;11.00;70.00;;;;;;5095526;28;20093;-80
2023/03/16 11:32:52;;;;;;;2.72;0.68;;;10.80;69.10;;;;;;5090730;28;20091;-80
2023/03/16 11:35:41;;;;;;;3.13;0.70;;;10.70;69.50;;;;;;5091914;28;20035;-79
2023/03/16 11:38:20;;;;;;;3.35;0.60;;;11.20;71.50;;;;;;5090762;28;20032;-80
2023/03/16 11:41:09;;;;;;;1.48;0.77;;;11.80;71.10;;;;;;5092109;28;20112;-80
2023/03/16 11:44:07;;;;;;;2.60;0.90;;;11.90;72.10;;;;;;5085659;28;20039;-81
2023/03/16 11:46:55;;;;;;;3.67;0.90;;;12.30;70.30;;;;;;5083497;28;20363;-80
2023/03/16 11:49:51;;;;;;;2.97;0.88;;;12.60;70.10;;;;;;5095424;28;20074;-80
2023/03/16 11:52:49;;;;;;;3.28;1.30;;;12.80;70.00;;;;;;5087221;28;20044;-80
2023/03/16 11:55:27;;;;;;;2.25;1.00;;;12.60;68.50;;;;;;5086263;28;20056;-80
2023/03/16 11:58:36;;;;;;;3.20;1.20;;;12.60;70.30;;;;;;5088002;28;20366;-80
2023/03/16 12:01:06;;;;;;;3.15;1.17;;;12.80;69.10;;;;;;5088204;28;20365;-81
2023/03/16 12:03:40;;;;;;;2.75;1.15;;;12.90;69.20;;;;;;5084830;28;20032;-80
2023/03/16 12:06:27;;;;;;;;;;;12.90;69.10;;;;;;5085472;28;20039;-80
2023/03/16 12:09:07;;;;;;;4.53;1.40;;;13.10;69.30;;;;;;5092702;28;19924;-80
2023/03/16 12:11:51;;;;;;;2.10;0.85;;;13.20;69.00;;;;;;5084494;28;20032;-80
2023/03/16 12:14:32;;;;;;;8.07;1.50;;;13.30;68.90;;;;;;5088926;28;20028;-80
2023/03/16 12:17:10;;;;;;;2.78;0.75;;;13.20;69.50;;;;;;5084697;28;20038;-79
2023/03/16 12:19:43;;;;;;;4.53;0.90;;;13.20;69.00;;;;;;5091661;28;20027;-80
2023/03/16 12:22:18;;;;;;;4.22;1.00;;;13.50;70.40;;;;;;5084337;28;20492;-79
2023/03/16 12:24:46;;;;;;;2.80;0.90;;;13.50;69.00;;;;;;5084289;28;20670;-81
2023/03/16 12:27:23;;;;;;;3.22;0.77;;;13.40;68.20;;;;;;5083442;28;20035;-80
2023/03/16 12:30:13;;;;;;;3.40;0.82;;;13.50;69.10;;;;;;5084783;28;20142;-81
2023/03/16 12:33:07;;;;;;;1.77;0.77;;;13.20;67.90;;;;;;5093912;28;20019;-80
2023/03/16 12:35:47;;;;;;;1.73;0.90;;;13.40;68.40;;;;;;5078283;28;20033;-80
2023/03/16 12:38:37;;;;;;;2.35;0.85;;;13.20;68.00;;;;;;5087440;28;20050;-80
2023/03/16 12:41:28;;;;;;;3.45;1.08;;;13.20;68.90;;;;;;5089198;28;20116;-81
2023/03/16 12:44:06;;;;;;;2.05;0.77;;;13.30;68.40;;;;;;5086223;28;20355;-81
2023/03/16 12:46:47;;;;;;;2.35;0.75;;;13.50;68.70;;;;;;5086602;28;20028;-80
2023/03/16 12:49:14;;;;;;;2.83;1.00;;;13.40;67.80;;;;;;5086351;28;20046;-81
2023/03/16 12:51:42;;;;;;;2.22;1.05;;;13.40;68.60;;;;;;5085248;28;20466;-80
2023/03/16 12:54:24;;;;;;;2.47;1.00;;;13.70;70.50;;;;;;5084609;28;20036;-80
2023/03/16 12:57:13;;;;;;;1.92;0.98;;;13.80;68.60;;;;;;5083914;28;20036;-80
2023/03/16 12:59:42;;;;;;;1.88;0.80;;;13.80;68.40;;;;;;5082310;28;20181;-81
2023/03/16 13:02:31;;;;;;;1.85;0.85;;;13.90;69.00;;;;;;5082306;28;20089;-79
2023/03/16 13:05:10;;;;;;;1.95;0.80;;;13.70;69.60;;;;;;5088908;28;20117;-80
2023/03/16 13:07:45;;;;;;;2.33;1.00;;;13.70;68.70;;;;;;5084809;28;20024;-79
2023/03/16 13:10:13;;;;;;;2.33;0.73;;;13.70;69.00;;;;;;5083337;28;20036;-80
2023/03/16 13:12:40;;;;;;;2.90;1.20;;;13.60;68.20;;;;;;5083764;28;20030;-81
2023/03/16 13:15:22;;;;;;;3.10;0.98;;;13.40;68.80;;;;;;5081299;28;20593;-80